Main page
Satellite images 10-day forecastsClimateMarine weather Cyclones Lightning AirportsFAQ Newsletter About
Weather : Europe Africa North America South America Asia Australia-Oceania Others
Languages Contact

Belgrade, Serbia

Belgrade Nikola Tesla Airport

latitude: 44-49N, longitude: 020-17E, elevation: 96 m


METAR: LYBE 041630Z 34004KT 310V010 CAVOK 30/14 Q1020 NOSIG
TAF: LYBE 041100Z 0412/0512 34006KT CAVOK TX32/0512Z TN17/0503Z

Time: 18:57 (16:57 UTC)

Current weather observation

The report was made 27 minutes ago, at 16:30 UTC
Wind 4 kt from the North/Northwest, varying between Northwest and North
Temperature 30°C
Humidity 38%
Pressure 1020 hPa
Visibility 10 km or more
no clouds below 1500 m and no cumulonimbus

Change units

Forecast

The report was made 5 hours and 57 minutes ago, at 11:00 UTC
Forecast valid from 04 at 12 UTC to 05 at 12 UTC
Wind 6 kt from the North/Northwest
Visibility 10 km or more
no clouds below 1500 m and no cumulonimbus
The information on this site is subject to a disclaimer
Weather : Europe Africa North America South America Asia Australia-Oceania Others
Satellite images 10-day forecastsClimateMarine weather Cyclones Lightning AirportsFAQ Languages Contact Newsletter About